Middleton, WI

9:42 PM CST on February 05, 2016 (GMT -0600)
Middleton | | Change Station
CLOSE
Current Station
Airport
Location: Middleton,
Elevation: 928 ft
Nearby Weather Stations

Elev 928 ft 43.12 °N, 89.53 °W | Updated 7 minutes ago

Overcast
Overcast
28 °F
Feels Like 24 °F
N
4
Wind Variable Wind from SW

Today
High -- | Low -- °F
--% Chance of Precip.
Yesterday
High -- | Low -- °F
Precip. -- in
Pressure 30.28 in
Visibility 10.0 miles
Clouds Overcast 6000 ft
Windchill 24 °F
Dew Point 19 °F
Humidity 72%
Rainfall 0.00 in
Snow Depth Not available.
7:09 AM 5:15 PM
Waning Crescent, 8% visible
METAR KC29 060335Z AUTO 22003KT 10SM OVC060 M02/M07 A3028 RMK AO1 T10251070
Pressure 30.28 in
Visibility 10.0 miles
Clouds Overcast 6000 ft
Windchill 24 °F
Dew Point 19 °F
Humidity 72%
Rainfall 0.00 in
Snow Depth Not available.
7:09 AM 5:15 PM
Waning Crescent, 8% visible
METAR KC29 060335Z AUTO 22003KT 10SM OVC060 M02/M07 A3028 RMK AO1 T10251070

10-Day Weather Forecast

Almanac

Astronomy

Feb. 05, 2016 Rise Set
Actual Time
Civil Twilight
Nautical Twilight
Astronomical Twilight
Moon
Length of Visible Light
Length of Day
Tomorrow will be .
, % of the Moon is Illuminated

Today's Extremes

State Highs State Lows

Community

WunderPhotos

Upload Photos

1,890,922 photos uploaded!

WunderBlog® & News

Nearby

Air Quality

  Air Quality AQ Index Pollutant
Not available.

Snow Depth

Station Depth Elevation

Earthquake Activity

City Distance Mag. Time & Date
Minimum magnitude displayed is 2.5.

Coastal Water Temperatures

Place Temperature

Stations

Nearby Weather Stations

Station Location Temp. Windchill Dew Point Humidity Wind Precip. Elev Updated Type
                   

Watches & Warnings

There are currently no watches in effect.